Time;durP1;ratioP1;P1;durP2;ratioP2;P2;SDS_P1;SDS_P2;PMS_P1;PMS_P2;Temp;Humidity;BMP_temperature;BMP_pressure;BME280_temperature;BME280_humidity;BME280_pressure;Samples;Min_cycle;Max_cycle;Signal;HPM_P1;HPM_P2
2023/01/13 00:01:13;;;;;;;4.28;1.23;;;29.90;67.40;;;;;;5066038;28;20020;-62
2023/01/13 00:03:41;;;;;;;4.97;1.40;;;30.40;67.40;;;;;;5071176;28;20086;-61
2023/01/13 00:06:15;;;;;;;3.80;1.45;;;30.90;65.50;;;;;;5087043;28;20024;-62
2023/01/13 00:08:43;;;;;;;3.38;1.40;;;31.20;65.70;;;;;;5074713;28;20024;-61
2023/01/13 00:11:10;;;;;;;5.80;1.60;;;31.60;63.40;;;;;;5077319;28;20087;-61
2023/01/13 00:13:38;;;;;;;6.10;1.73;;;31.90;62.80;;;;;;5060134;28;20138;-62
2023/01/13 00:16:09;;;;;;;3.85;1.50;;;32.10;60.80;;;;;;5072946;28;20051;-61
2023/01/13 00:18:36;;;;;;;5.95;1.90;;;32.10;59.80;;;;;;5083140;28;20019;-61
2023/01/13 00:21:13;;;;;;;4.22;1.60;;;31.50;57.50;;;;;;5075133;28;20021;-62
2023/01/13 00:23:41;;;;;;;6.35;1.88;;;30.70;59.90;;;;;;5069470;28;20028;-61
2023/01/13 00:26:16;;;;;;;6.20;1.83;;;30.70;59.80;;;;;;5069945;28;20032;-61
2023/01/13 00:28:43;;;;;;;6.88;1.50;;;30.50;61.60;;;;;;5073094;28;20036;-62
2023/01/13 00:31:14;;;;;;;3.75;1.65;;;30.60;66.20;;;;;;5075202;28;20102;-61
2023/01/13 00:33:42;;;;;;;7.90;2.00;;;30.80;62.10;;;;;;5068387;28;20024;-62
2023/01/13 00:36:13;;;;;;;7.35;2.20;;;31.00;60.90;;;;;;5068382;28;20031;-62
2023/01/13 00:38:44;;;;;;;4.32;1.58;;;30.50;61.30;;;;;;5068364;28;20028;-61
2023/01/13 00:41:20;;;;;;;3.58;1.52;;;30.50;64.60;;;;;;5066658;28;20036;-61
2023/01/13 00:43:48;;;;;;;7.65;1.90;;;31.30;62.60;;;;;;5070456;28;20039;-61
2023/01/13 00:46:18;;;;;;;5.07;1.42;;;31.90;61.10;;;;;;5085444;28;20027;-62
2023/01/13 00:48:45;;;;;;;5.50;1.48;;;32.20;61.60;;;;;;5069533;28;20056;-62
2023/01/13 00:51:16;;;;;;;4.07;1.50;;;32.50;61.00;;;;;;5075903;28;20036;-61
2023/01/13 00:53:46;;;;;;;8.23;2.13;;;33.00;55.60;;;;;;5079612;28;20025;-62
2023/01/13 00:56:18;;;;;;;4.72;1.60;;;33.00;56.20;;;;;;5061094;28;20044;-62
2023/01/13 00:58:46;;;;;;;7.05;1.45;;;32.80;58.20;;;;;;5068481;28;20021;-62
2023/01/13 01:01:20;;;;;;;6.55;2.10;;;32.70;59.60;;;;;;5061975;28;20521;-62
2023/01/13 01:03:51;;;;;;;4.05;1.75;;;32.80;60.40;;;;;;5061823;28;20032;-62
2023/01/13 01:06:24;;;;;;;7.20;1.83;;;32.60;56.10;;;;;;5070305;28;20035;-63
2023/01/13 01:08:53;;;;;;;5.13;1.85;;;32.40;58.80;;;;;;5077187;28;20205;-64
2023/01/13 01:11:27;;;;;;;5.13;1.58;;;32.20;58.90;;;;;;5070288;28;20115;-64
2023/01/13 01:13:56;;;;;;;5.20;1.38;;;31.80;57.60;;;;;;5056103;28;20022;-63
2023/01/13 01:16:26;;;;;;;3.38;1.27;;;31.30;59.90;;;;;;5084618;28;20058;-63
2023/01/13 01:18:55;;;;;;;2.42;1.08;;;31.40;62.30;;;;;;5078656;28;20028;-62
2023/01/13 01:21:24;;;;;;;8.20;1.95;;;31.30;57.70;;;;;;5076517;28;20087;-61
2023/01/13 01:23:51;;;;;;;4.00;1.20;;;30.80;59.70;;;;;;5070808;28;20016;-62
2023/01/13 01:26:24;;;;;;;4.82;1.00;;;30.80;62.10;;;;;;5084084;28;20107;-62
2023/01/13 01:28:52;;;;;;;2.88;1.05;;;30.80;62.50;;;;;;5078782;28;20093;-61
2023/01/13 01:31:30;;;;;;;3.25;1.00;;;31.30;59.40;;;;;;5061647;28;20025;-61
2023/01/13 01:33:58;;;;;;;5.82;1.10;;;31.10;58.60;;;;;;5069999;28;20040;-62
2023/01/13 01:36:29;;;;;;;5.07;1.30;;;31.10;60.50;;;;;;5078439;28;20377;-61
2023/01/13 01:38:58;;;;;;;5.38;1.27;;;31.30;60.70;;;;;;5077751;28;20357;-62
2023/01/13 01:41:29;;;;;;;6.68;1.55;;;31.40;60.10;;;;;;5071373;28;20033;-62
2023/01/13 01:44:01;;;;;;;6.70;1.85;;;31.20;59.40;;;;;;5068673;28;20061;-62
2023/01/13 01:46:44;;;;;;;6.05;1.50;;;31.50;63.10;;;;;;5072905;28;20028;-61
2023/01/13 01:49:18;;;;;;;6.55;1.52;;;32.00;58.40;;;;;;5076217;28;20051;-61
2023/01/13 01:51:59;;;;;;;6.15;1.75;;;32.80;59.70;;;;;;5083136;28;20485;-61
2023/01/13 01:54:47;;;;;;;3.60;1.30;;;33.30;56.60;;;;;;5076322;28;20033;-62
2023/01/13 01:57:30;;;;;;;4.28;1.45;;;33.70;57.90;;;;;;5080493;28;20505;-62
2023/01/13 01:59:59;;;;;;;4.90;1.42;;;33.50;56.10;;;;;;5068908;28;20028;-62
2023/01/13 02:02:28;;;;;;;3.90;1.10;;;33.50;54.50;;;;;;5057475;28;20028;-63
2023/01/13 02:04:56;;;;;;;3.20;1.42;;;33.00;55.20;;;;;;5064328;28;20035;-62
2023/01/13 02:07:30;;;;;;;6.82;1.35;;;32.90;56.90;;;;;;5067957;28;20028;-63
2023/01/13 02:10:02;;;;;;;3.55;1.02;;;33.00;58.20;;;;;;5067949;28;20028;-61
2023/01/13 02:12:30;;;;;;;5.78;1.38;;;33.50;58.70;;;;;;5075772;28;20017;-61
2023/01/13 02:15:12;;;;;;;4.28;1.60;;;33.80;58.50;;;;;;5069376;28;20590;-62
2023/01/13 02:18:03;;;;;;;2.45;1.02;;;33.70;56.70;;;;;;5077593;28;20023;-62
2023/01/13 02:20:46;;;;;;;4.60;1.20;;;33.30;56.40;;;;;;5056896;28;20111;-61
2023/01/13 02:27:16;;;;;;;3.20;0.85;;;32.40;57.90;;;;;;5060959;28;20043;-62
2023/01/13 02:32:55;;;;;;;6.55;1.40;;;31.90;58.80;;;;;;5075204;28;20082;-62
2023/01/13 02:35:47;;;;;;;6.03;1.58;;;31.90;60.00;;;;;;5086221;28;20020;-61
2023/01/13 02:38:18;;;;;;;5.57;1.10;;;31.80;58.60;;;;;;5070360;28;20020;-61
2023/01/13 02:44:05;;;;;;;7.35;1.42;;;31.50;60.10;;;;;;5074558;28;20045;-62
2023/01/13 02:44:05;;;;;;;9.45;1.90;;;31.50;59.90;;;;;;5069946;28;20042;-62
2023/01/13 02:46:45;;;;;;;6.10;1.40;;;31.30;60.20;;;;;;5089806;28;20036;-61
2023/01/13 02:49:23;;;;;;;6.05;1.27;;;31.50;62.30;;;;;;5077308;28;20021;-62
2023/01/13 02:51:54;;;;;;;2.85;1.13;;;31.70;59.80;;;;;;5074768;28;20120;-62
2023/01/13 02:54:26;;;;;;;3.30;0.88;;;31.70;60.00;;;;;;5079336;28;20091;-62
2023/01/13 02:56:57;;;;;;;2.72;0.98;;;31.00;59.60;;;;;;5075347;28;20032;-62
2023/01/13 02:59:26;;;;;;;4.30;2.17;;;30.70;62.30;;;;;;5071743;28;20032;-62
2023/01/13 03:01:56;;;;;;;5.72;1.20;;;30.60;62.40;;;;;;5074932;28;20143;-62
2023/01/13 03:04:47;;;;;;;5.95;1.38;;;30.40;62.90;;;;;;5086332;28;20021;-62
2023/01/13 03:07:33;;;;;;;4.45;1.45;;;30.30;63.70;;;;;;5079946;28;20070;-74
2023/01/13 03:10:32;;;;;;;5.03;1.10;;;30.10;64.20;;;;;;5076495;28;20036;-71
2023/01/13 03:13:30;;;;;;;4.68;1.23;;;30.10;63.90;;;;;;5065100;28;20031;-71
2023/01/13 03:16:18;;;;;;;5.88;1.35;;;30.00;64.70;;;;;;5085862;28;20020;-70
2023/01/13 03:18:55;;;;;;;4.43;1.02;;;30.10;64.20;;;;;;5061596;28;20020;-71
2023/01/13 03:21:40;;;;;;;10.18;1.77;;;30.20;65.40;;;;;;5070906;28;20040;-71
2023/01/13 03:24:24;;;;;;;3.95;1.30;;;30.70;65.10;;;;;;5077396;28;20047;-70
2023/01/13 03:26:58;;;;;;;5.82;0.95;;;31.50;64.40;;;;;;5070276;28;20063;-69
2023/01/13 03:29:35;;;;;;;6.80;1.60;;;32.40;61.30;;;;;;5072268;28;20078;-70
2023/01/13 03:32:14;;;;;;;4.55;1.23;;;32.70;60.00;;;;;;5074480;28;20017;-69
2023/01/13 03:34:48;;;;;;;6.40;1.02;;;32.90;59.90;;;;;;5077543;28;20111;-69
2023/01/13 03:37:19;;;;;;;4.70;1.33;;;33.10;57.40;;;;;;5067285;28;20029;-69
2023/01/13 03:39:53;;;;;;;5.78;1.30;;;33.30;60.20;;;;;;5064820;28;20028;-69
2023/01/13 03:42:25;;;;;;;2.75;1.10;;;34.00;58.30;;;;;;5066141;28;20028;-69
2023/01/13 03:45:14;;;;;;;6.47;1.63;;;33.90;57.40;;;;;;5065067;28;20035;-70
2023/01/13 03:47:52;;;;;;;3.28;1.02;;;33.30;57.70;;;;;;5068008;28;20378;-70
2023/01/13 03:50:47;;;;;;;5.85;1.00;;;33.30;57.50;;;;;;5062607;28;20040;-70
2023/01/13 03:53:23;;;;;;;4.53;1.02;;;33.10;60.30;;;;;;5062340;28;20824;-70
2023/01/13 03:56:07;;;;;;;3.75;0.90;;;33.10;57.90;;;;;;5068291;28;20060;-70
2023/01/13 03:58:41;;;;;;;6.22;0.88;;;33.00;58.20;;;;;;5074255;28;20027;-70
2023/01/13 04:01:46;;;;;;;6.60;1.00;;;32.70;58.30;;;;;;5054494;28;20037;-70
2023/01/13 04:04:22;;;;;;;3.45;1.08;;;32.00;57.80;;;;;;5057479;28;20115;-70
2023/01/13 04:07:03;;;;;;;5.68;0.98;;;31.80;59.00;;;;;;5064948;28;20170;-70
2023/01/13 04:09:34;;;;;;;5.50;1.00;;;31.50;60.70;;;;;;5070878;28;20032;-71
2023/01/13 04:12:18;;;;;;;9.13;1.83;;;31.50;62.70;;;;;;5072547;28;20032;-70
2023/01/13 04:14:46;;;;;;;5.03;1.23;;;31.40;61.90;;;;;;5079583;28;20054;-71
2023/01/13 04:17:15;;;;;;;7.85;1.20;;;31.30;62.90;;;;;;5079011;28;20032;-70
2023/01/13 04:19:42;;;;;;;5.68;1.35;;;31.40;62.50;;;;;;5065071;28;20108;-71
2023/01/13 04:22:09;;;;;;;2.45;0.90;;;31.10;63.10;;;;;;5068636;28;20103;-70
2023/01/13 04:24:37;;;;;;;6.15;1.10;;;31.10;62.70;;;;;;5072910;28;20550;-72
2023/01/13 04:27:05;;;;;;;5.50;1.55;;;31.30;61.70;;;;;;5070901;28;20085;-71
2023/01/13 04:29:32;;;;;;;6.72;1.02;;;31.00;63.30;;;;;;5074740;28;20036;-70
2023/01/13 04:31:59;;;;;;;6.13;0.98;;;31.00;63.10;;;;;;5073418;28;20023;-71
2023/01/13 04:34:27;;;;;;;5.88;1.17;;;30.60;64.50;;;;;;5069906;28;20028;-72
2023/01/13 04:36:54;;;;;;;3.45;1.02;;;30.60;64.50;;;;;;5069661;28;20480;-71
2023/01/13 04:39:21;;;;;;;3.78;1.13;;;30.40;65.40;;;;;;5074825;28;20057;-70
2023/01/13 04:41:57;;;;;;;5.18;1.13;;;30.40;64.90;;;;;;5074044;28;20024;-70
2023/01/13 04:44:25;;;;;;;6.32;1.17;;;30.80;66.30;;;;;;5066616;28;20063;-71
2023/01/13 04:46:53;;;;;;;6.88;1.10;;;31.20;65.00;;;;;;5067395;28;20063;-70
2023/01/13 04:49:20;;;;;;;7.03;1.40;;;31.00;65.00;;;;;;5077791;28;20032;-70
2023/01/13 04:51:48;;;;;;;2.70;1.15;;;30.70;65.60;;;;;;5070648;28;20603;-71
2023/01/13 04:54:15;;;;;;;7.72;1.70;;;30.40;66.80;;;;;;5071606;28;20103;-70
2023/01/13 04:56:43;;;;;;;4.10;1.67;;;30.30;68.00;;;;;;5068947;28;20033;-71
2023/01/13 04:59:11;;;;;;;5.78;1.20;;;29.80;68.70;;;;;;5072983;28;20029;-72
2023/01/13 05:01:39;;;;;;;4.38;1.00;;;29.50;70.50;;;;;;5065035;28;20107;-71
2023/01/13 05:04:07;;;;;;;5.07;1.65;;;29.60;71.60;;;;;;5067462;28;20024;-71
2023/01/13 05:06:34;;;;;;;6.13;1.10;;;29.70;71.90;;;;;;5065600;28;20112;-71
2023/01/13 05:09:02;;;;;;;7.50;1.10;;;30.00;71.20;;;;;;5065584;28;20089;-71
2023/01/13 05:17:00;;;;;;;9.23;2.65;;;30.50;69.70;;;;;;5065860;28;20036;-72
2023/01/13 05:19:33;;;;;;;4.47;1.13;;;30.70;69.70;;;;;;5067503;28;20032;-71
2023/01/13 05:27:33;;;;;;;6.13;1.55;;;30.20;70.20;;;;;;5074086;28;20097;-72
2023/01/13 05:30:00;;;;;;;4.43;1.50;;;30.20;70.50;;;;;;5070875;28;20036;-70
2023/01/13 05:32:28;;;;;;;5.72;1.25;;;30.20;70.80;;;;;;5066159;28;20020;-72
2023/01/13 05:34:56;;;;;;;5.35;1.48;;;29.50;72.20;;;;;;5073306;28;20547;-70
2023/01/13 05:37:24;;;;;;;8.30;1.45;;;29.40;73.10;;;;;;5077745;28;20032;-72
2023/01/13 05:45:23;;;;;;;6.05;1.10;;;29.90;73.10;;;;;;5063074;28;20112;-71
2023/01/13 05:47:50;;;;;;;3.30;1.30;;;30.00;72.70;;;;;;5085024;28;20389;-71
2023/01/13 05:50:18;;;;;;;3.05;1.08;;;30.20;71.30;;;;;;5065429;28;20036;-71
2023/01/13 05:52:45;;;;;;;6.07;0.93;;;30.20;71.30;;;;;;5064968;28;20035;-72
2023/01/13 05:55:13;;;;;;;4.85;1.50;;;30.30;70.00;;;;;;5062099;28;20433;-71
2023/01/13 05:57:41;;;;;;;3.72;1.00;;;30.60;70.50;;;;;;5068857;28;20103;-72
2023/01/13 06:00:09;;;;;;;9.00;1.63;;;30.70;69.90;;;;;;5062117;28;20098;-71
2023/01/13 06:02:36;;;;;;;7.45;1.35;;;30.60;69.30;;;;;;5064736;28;20025;-72
2023/01/13 06:05:04;;;;;;;5.10;1.15;;;30.20;69.70;;;;;;5079500;28;20024;-72
2023/01/13 06:07:31;;;;;;;4.85;1.17;;;29.80;71.20;;;;;;5069993;28;20413;-72
2023/01/13 06:09:58;;;;;;;3.30;0.77;;;29.10;74.00;;;;;;5067896;28;20065;-72
2023/01/13 06:12:26;;;;;;;4.57;1.20;;;29.00;74.90;;;;;;5066334;28;20117;-71
2023/01/13 06:14:53;;;;;;;6.72;1.70;;;28.80;75.90;;;;;;5072310;28;20033;-73
2023/01/13 06:17:20;;;;;;;2.75;1.00;;;28.40;77.70;;;;;;5073369;28;20381;-72
2023/01/13 06:19:48;;;;;;;3.35;0.90;;;28.30;78.30;;;;;;5074304;28;20097;-72
2023/01/13 06:22:24;;;;;;;4.82;0.80;;;28.40;79.20;;;;;;5076493;28;20020;-73
2023/01/13 06:24:53;;;;;;;3.20;1.10;;;28.20;80.10;;;;;;5075749;28;20039;-71
2023/01/13 06:27:21;;;;;;;3.13;1.00;;;28.10;80.30;;;;;;5086003;28;20070;-71
2023/01/13 06:29:49;;;;;;;3.20;1.10;;;28.10;78.90;;;;;;5072220;28;20036;-72
2023/01/13 06:32:22;;;;;;;3.13;1.23;;;28.10;78.50;;;;;;5070091;28;20055;-72
2023/01/13 06:34:53;;;;;;;4.45;1.02;;;28.00;79.90;;;;;;5079313;28;20505;-72
2023/01/13 06:37:24;;;;;;;4.82;1.00;;;28.10;79.20;;;;;;5082376;28;20028;-72
2023/01/13 06:39:58;;;;;;;3.83;1.02;;;28.10;79.40;;;;;;5072171;28;20032;-72
2023/01/13 06:45:15;;;;;;;5.38;1.00;;;27.90;81.90;;;;;;5062432;28;20102;-72
2023/01/13 06:47:43;;;;;;;7.28;1.27;;;27.90;82.50;;;;;;5075695;28;20056;-73
2023/01/13 06:50:11;;;;;;;4.28;1.45;;;27.90;82.30;;;;;;5060418;28;20215;-71
2023/01/13 06:52:38;;;;;;;4.40;1.10;;;27.70;83.50;;;;;;5067666;28;20025;-74
2023/01/13 06:55:06;;;;;;;8.55;1.30;;;27.50;84.40;;;;;;5068594;28;20075;-75
2023/01/13 06:57:33;;;;;;;7.28;1.10;;;27.10;87.00;;;;;;5070753;28;20024;-73
2023/01/13 07:00:00;;;;;;;7.05;1.45;;;26.80;89.90;;;;;;5068179;28;20025;-73
2023/01/13 07:02:27;;;;;;;6.93;1.58;;;26.70;90.20;;;;;;5065485;28;20107;-73
2023/01/13 07:04:55;;;;;;;4.80;1.52;;;26.60;90.50;;;;;;5078596;28;20039;-76
2023/01/13 07:07:22;;;;;;;5.63;1.35;;;26.50;91.20;;;;;;5068548;28;20024;-72
2023/01/13 07:09:50;;;;;;;4.68;1.40;;;26.50;91.10;;;;;;5067774;28;20028;-73
2023/01/13 07:12:17;;;;;;;9.85;1.65;;;26.40;92.30;;;;;;5072437;28;20024;-73
2023/01/13 07:17:29;;;;;;;5.22;1.40;;;26.30;93.40;;;;;;5067825;28;20036;-75
2023/01/13 07:19:57;;;;;;;5.60;1.42;;;26.20;93.90;;;;;;5067604;28;20020;-74
2023/01/13 07:22:24;;;;;;;3.97;1.38;;;26.10;94.00;;;;;;5069310;28;20104;-72
2023/01/13 07:24:51;;;;;;;6.38;1.42;;;26.00;94.50;;;;;;5069681;28;20129;-72
2023/01/13 07:27:19;;;;;;;6.35;1.42;;;25.80;95.00;;;;;;5080878;28;20024;-75
2023/01/13 07:29:46;;;;;;;7.53;0.85;;;25.80;95.40;;;;;;5066090;28;20029;-74
2023/01/13 07:32:14;;;;;;;7.28;1.10;;;25.80;95.20;;;;;;5064220;28;20020;-74
2023/01/13 07:34:41;;;;;;;4.28;1.50;;;25.70;95.70;;;;;;5073682;28;20016;-73
2023/01/13 07:37:09;;;;;;;5.78;2.00;;;25.70;96.10;;;;;;5080643;28;20063;-73
2023/01/13 07:39:36;;;;;;;4.30;1.17;;;25.70;96.50;;;;;;5062764;28;20650;-74
2023/01/13 07:44:49;;;;;;;5.82;1.17;;;25.40;97.50;;;;;;5067878;28;20465;-75
2023/01/13 07:47:16;;;;;;;6.93;1.45;;;25.30;98.00;;;;;;5080727;28;20024;-74
2023/01/13 07:49:43;;;;;;;8.90;1.73;;;25.30;98.40;;;;;;5071775;28;20036;-74
2023/01/13 07:52:11;;;;;;;6.03;1.40;;;25.30;98.50;;;;;;5066750;28;20021;-73
2023/01/13 07:54:38;;;;;;;3.40;1.10;;;25.30;98.60;;;;;;5064796;28;20085;-73
2023/01/13 07:57:05;;;;;;;5.88;1.55;;;25.20;98.70;;;;;;5065584;28;20509;-75
2023/01/13 07:59:33;;;;;;;5.80;1.30;;;25.30;98.90;;;;;;5064809;28;20028;-71
2023/01/13 08:02:00;;;;;;;7.32;1.27;;;25.30;99.00;;;;;;5067422;28;20104;-68
2023/01/13 08:04:27;;;;;;;7.10;1.50;;;25.20;97.30;;;;;;5067277;28;20047;-72
2023/01/13 08:06:54;;;;;;;5.93;1.35;;;25.20;97.60;;;;;;5060458;28;20020;-73
2023/01/13 08:09:22;;;;;;;5.40;1.55;;;25.10;97.70;;;;;;5063174;28;20044;-72
2023/01/13 08:13:16;;;;;;;5.05;1.45;;;25.10;97.90;;;;;;5062879;28;20094;-72
2023/01/13 08:14:40;;;;;;;14.98;3.33;;;25.00;98.30;;;;;;5078560;28;20111;-74
2023/01/13 08:17:10;;;;;;;7.88;1.35;;;24.90;99.00;;;;;;5066398;28;20098;-73
2023/01/13 08:19:37;;;;;;;8.60;1.77;;;24.90;99.50;;;;;;5055077;28;20043;-73
2023/01/13 08:22:04;;;;;;;8.30;1.48;;;24.90;99.60;;;;;;5065937;28;20024;-71
2023/01/13 08:24:32;;;;;;;6.43;1.40;;;24.80;99.50;;;;;;5058566;28;20516;-71
2023/01/13 08:26:59;;;;;;;5.18;1.30;;;24.70;99.70;;;;;;5065606;28;20028;-72
2023/01/13 08:29:26;;;;;;;7.97;1.27;;;24.70;99.90;;;;;;5062142;28;20082;-74
2023/01/13 08:31:54;;;;;;;6.10;1.10;;;24.60;99.90;;;;;;5063878;28;20111;-72
2023/01/13 08:34:21;;;;;;;9.32;1.75;;;24.60;99.90;;;;;;5063965;28;20032;-72
2023/01/13 08:36:52;;;;;;;5.07;1.15;;;24.50;99.90;;;;;;5063903;28;20032;-71
2023/01/13 08:39:19;;;;;;;5.28;1.13;;;24.40;99.90;;;;;;5059649;28;20064;-72
2023/01/13 08:41:57;;;;;;;5.05;1.20;;;24.30;99.90;;;;;;5064007;28;20025;-73
2023/01/13 08:44:27;;;;;;;6.22;1.65;;;24.20;99.90;;;;;;5069089;28;20040;-72
2023/01/13 08:46:55;;;;;;;9.60;2.20;;;24.10;99.90;;;;;;5059082;28;20039;-72
2023/01/13 08:49:23;;;;;;;6.25;1.38;;;24.00;99.90;;;;;;5060868;28;20040;-71
2023/01/13 08:51:51;;;;;;;8.50;1.65;;;24.00;99.90;;;;;;5069722;28;20115;-72
2023/01/13 08:54:19;;;;;;;6.22;1.33;;;23.90;99.90;;;;;;5054388;28;20144;-72
2023/01/13 08:56:47;;;;;;;6.82;1.90;;;23.90;99.90;;;;;;5061927;28;20106;-69
2023/01/13 08:59:17;;;;;;;4.25;1.17;;;23.80;99.90;;;;;;5060077;28;20047;-69
2023/01/13 09:01:44;;;;;;;8.27;1.42;;;23.70;99.90;;;;;;5074236;28;20039;-71
2023/01/13 09:04:22;;;;;;;11.05;2.35;;;23.60;99.90;;;;;;5072389;28;20020;-71
2023/01/13 09:06:51;;;;;;;6.72;1.65;;;23.60;99.90;;;;;;5065383;28;20115;-68
2023/01/13 09:09:18;;;;;;;6.55;1.42;;;23.50;99.90;;;;;;5058050;28;20064;-72
2023/01/13 09:14:36;;;;;;;8.70;1.38;;;23.50;99.90;;;;;;5075968;28;20069;-73
2023/01/13 09:17:04;;;;;;;8.23;0.98;;;23.40;99.90;;;;;;5068405;28;20025;-72
2023/01/13 09:19:31;;;;;;;11.77;1.58;;;23.40;99.90;;;;;;5064151;28;20119;-68
2023/01/13 09:21:58;;;;;;;5.35;1.20;;;23.40;99.90;;;;;;5075115;28;20167;-68
2023/01/13 09:24:25;;;;;;;6.35;1.20;;;23.40;99.90;;;;;;5073335;28;20496;-67
2023/01/13 09:26:53;;;;;;;9.75;1.60;;;23.40;99.90;;;;;;5066525;28;20085;-66
2023/01/13 09:29:20;;;;;;;10.13;1.42;;;23.30;99.90;;;;;;5069663;28;20037;-67
2023/01/13 09:31:47;;;;;;;11.20;1.77;;;23.30;99.90;;;;;;5063761;28;20031;-67
2023/01/13 09:37:05;;;;;;;11.10;1.35;;;23.20;99.90;;;;;;5067177;28;20078;-68
2023/01/13 09:39:36;;;;;;;7.15;1.00;;;23.20;99.90;;;;;;5062186;28;20078;-67
2023/01/13 09:45:13;;;;;;;6.07;1.60;;;23.10;99.90;;;;;;5062051;28;20035;-68
2023/01/13 09:47:47;;;;;;;8.13;1.42;;;23.00;99.90;;;;;;5066211;28;20028;-70
2023/01/13 09:50:14;;;;;;;4.63;1.33;;;23.00;99.90;;;;;;5068411;28;20553;-70
2023/01/13 09:52:43;;;;;;;8.48;1.40;;;23.00;99.90;;;;;;5069903;28;20056;-70
2023/01/13 09:55:10;;;;;;;6.22;1.48;;;23.00;99.90;;;;;;5070559;28;20045;-67
2023/01/13 09:57:39;;;;;;;9.23;1.80;;;23.00;99.90;;;;;;5065569;28;20033;-67
2023/01/13 10:00:23;;;;;;;5.13;1.58;;;22.90;99.90;;;;;;5063920;28;20033;-68
2023/01/13 10:03:09;;;;;;;5.18;1.40;;;22.90;99.90;;;;;;5052315;28;20037;-68
2023/01/13 10:05:44;;;;;;;5.28;2.00;;;22.90;99.90;;;;;;5059884;28;20047;-70
2023/01/13 10:08:21;;;;;;;9.85;1.85;;;22.80;99.90;;;;;;5061818;28;20025;-67
2023/01/13 10:10:54;;;;;;;7.45;1.30;;;22.90;99.90;;;;;;5067627;28;20068;-69
2023/01/13 10:13:30;;;;;;;7.75;1.33;;;22.80;99.90;;;;;;5076647;28;20073;-68
2023/01/13 10:16:23;;;;;;;11.57;1.20;;;22.80;99.90;;;;;;5065012;28;20028;-66
2023/01/13 10:19:15;;;;;;;5.55;1.40;;;22.80;99.90;;;;;;5068314;28;20051;-67
2023/01/13 10:22:00;;;;;;;7.20;1.92;;;22.80;99.90;;;;;;5076282;28;20028;-67
2023/01/13 10:24:55;;;;;;;11.55;2.25;;;22.80;99.90;;;;;;5058693;28;20039;-66
2023/01/13 10:27:29;;;;;;;;;;;22.80;99.90;;;;;;5065601;28;20456;-67
2023/01/13 10:29:57;;;;;;;5.43;1.20;;;22.80;99.90;;;;;;5076540;28;19920;-69
2023/01/13 10:32:24;;;;;;;7.57;1.17;;;22.70;99.90;;;;;;5078534;28;20035;-66
2023/01/13 10:35:01;;;;;;;5.40;1.52;;;22.70;99.90;;;;;;5068956;28;20066;-67
2023/01/13 10:37:28;;;;;;;5.40;1.60;;;22.70;99.90;;;;;;5066632;28;20104;-70
2023/01/13 10:40:00;;;;;;;9.02;1.27;;;22.60;99.90;;;;;;5072794;28;20028;-71
2023/01/13 10:42:27;;;;;;;9.63;1.65;;;22.60;99.90;;;;;;5078728;28;20470;-68
2023/01/13 10:44:59;;;;;;;8.20;1.30;;;22.50;99.90;;;;;;5077484;28;20035;-69
2023/01/13 10:47:35;;;;;;;7.50;1.25;;;22.50;99.90;;;;;;5076880;28;20028;-69
2023/01/13 10:50:22;;;;;;;5.80;1.65;;;22.50;99.90;;;;;;5070977;28;20033;-69
2023/01/13 10:53:16;;;;;;;9.95;1.83;;;22.40;99.90;;;;;;5078058;28;20021;-68
2023/01/13 10:55:57;;;;;;;7.47;1.53;;;22.40;99.90;;;;;;5069971;28;20044;-68
2023/01/13 10:58:25;;;;;;;6.20;1.73;;;22.40;99.90;;;;;;5063476;28;20029;-68
2023/01/13 11:01:08;;;;;;;7.90;1.50;;;22.40;99.90;;;;;;5067196;28;20104;-68
2023/01/13 11:03:44;;;;;;;10.40;2.03;;;22.50;99.90;;;;;;5076483;28;20064;-68
2023/01/13 11:06:26;;;;;;;5.68;1.45;;;22.40;99.90;;;;;;5069287;28;20488;-68
2023/01/13 11:08:57;;;;;;;5.10;1.15;;;22.40;99.90;;;;;;5075312;28;20028;-69
2023/01/13 11:11:44;;;;;;;8.57;1.75;;;22.30;99.90;;;;;;5067922;28;20042;-68
2023/01/13 11:14:39;;;;;;;12.05;1.40;;;22.30;99.90;;;;;;5065001;28;20038;-68
2023/01/13 11:17:14;;;;;;;;;;;22.20;99.90;;;;;;5078173;28;20031;-69
2023/01/13 11:19:48;;;;;;;14.20;1.88;;;22.20;99.90;;;;;;5066453;28;19969;-70
2023/01/13 11:22:26;;;;;;;10.18;2.72;;;22.20;99.90;;;;;;5068045;28;20056;-68
2023/01/13 11:25:09;;;;;;;7.93;1.20;;;22.10;99.90;;;;;;5076947;28;20106;-68
2023/01/13 11:27:39;;;;;;;7.57;1.60;;;22.00;99.90;;;;;;5079175;28;20028;-68
2023/01/13 11:30:20;;;;;;;8.13;1.52;;;22.00;99.90;;;;;;5071758;28;20111;-68
2023/01/13 11:33:14;;;;;;;5.88;1.30;;;21.90;99.90;;;;;;5080225;28;20458;-69
2023/01/13 11:36:14;;;;;;;7.80;1.30;;;21.90;99.90;;;;;;5085054;28;20545;-71
2023/01/13 11:39:10;;;;;;;10.55;1.80;;;21.80;99.90;;;;;;5059151;28;20065;-73
2023/01/13 11:42:20;;;;;;;5.85;1.50;;;21.70;99.90;;;;;;5071438;28;20036;-70
2023/01/13 11:45:11;;;;;;;14.27;2.15;;;21.70;99.90;;;;;;5056342;28;20032;-70
2023/01/13 11:47:39;;;;;;;8.38;1.88;;;21.70;99.90;;;;;;5066733;28;20478;-70
2023/01/13 11:50:21;;;;;;;5.95;1.33;;;21.60;99.90;;;;;;5078419;28;20040;-70
2023/01/13 11:53:24;;;;;;;10.85;1.48;;;21.60;99.90;;;;;;5074311;28;20028;-70
2023/01/13 11:56:07;;;;;;;7.50;1.60;;;21.50;99.90;;;;;;5072884;28;20060;-70
2023/01/13 11:58:43;;;;;;;11.02;1.80;;;21.50;99.90;;;;;;5078593;28;20029;-70
2023/01/13 12:01:22;;;;;;;8.98;1.50;;;21.40;99.90;;;;;;5073563;28;20029;-71
2023/01/13 12:04:26;;;;;;;5.60;1.77;;;21.40;99.90;;;;;;5070435;28;20497;-73
2023/01/13 12:07:00;;;;;;;6.40;1.33;;;21.30;99.90;;;;;;5072337;28;20035;-70
2023/01/13 12:09:51;;;;;;;7.47;1.25;;;21.30;99.90;;;;;;5075397;28;20185;-71
2023/01/13 12:12:41;;;;;;;7.28;1.10;;;21.30;99.90;;;;;;5068096;28;20062;-70
2023/01/13 12:15:27;;;;;;;6.05;1.40;;;21.30;99.90;;;;;;5076426;28;20135;-70
2023/01/13 12:18:27;;;;;;;11.85;1.63;;;21.30;99.90;;;;;;5083475;28;20036;-70
2023/01/13 12:21:25;;;;;;;7.97;1.27;;;21.20;99.90;;;;;;5068361;28;20154;-71
2023/01/13 12:24:05;;;;;;;7.63;1.35;;;21.10;99.90;;;;;;5069684;28;20025;-70
2023/01/13 12:26:38;;;;;;;5.82;1.08;;;21.10;99.90;;;;;;5072734;28;20036;-70
2023/01/13 12:29:27;;;;;;;6.05;1.60;;;21.10;99.90;;;;;;5076391;28;20027;-70
2023/01/13 12:31:55;;;;;;;4.32;1.27;;;21.00;99.90;;;;;;5083960;28;20131;-71
2023/01/13 12:34:45;;;;;;;5.22;1.17;;;20.90;99.90;;;;;;5073632;28;20024;-71
2023/01/13 12:37:22;;;;;;;10.77;1.90;;;20.90;99.90;;;;;;5073551;28;20066;-70
2023/01/13 12:40:18;;;;;;;6.97;1.42;;;20.90;99.90;;;;;;5084103;28;20077;-70
2023/01/13 12:46:20;;;;;;;7.97;1.60;;;20.80;99.90;;;;;;5070261;28;20043;-70
2023/01/13 12:48:55;;;;;;;7.53;1.45;;;20.70;99.90;;;;;;5061007;28;20106;-71
2023/01/13 12:51:36;;;;;;;6.00;1.48;;;20.50;99.90;;;;;;5068280;28;20040;-69
2023/01/13 12:54:42;;;;;;;8.70;1.42;;;20.50;99.90;;;;;;5077495;28;20032;-69
2023/01/13 12:57:36;;;;;;;;;;;20.40;99.90;;;;;;5081006;28;20129;-69
2023/01/13 13:00:03;;;;;;;13.68;1.90;;;20.40;99.90;;;;;;5069277;28;19953;-70
2023/01/13 13:02:38;;;;;;;7.28;1.73;;;20.30;99.90;;;;;;5057843;28;20048;-70
2023/01/13 13:05:15;;;;;;;9.48;2.63;;;20.20;99.90;;;;;;5077361;28;20020;-70
2023/01/13 13:08:03;;;;;;;8.07;2.03;;;20.20;99.90;;;;;;5078012;28;20568;-70
2023/01/13 13:10:39;;;;;;;10.38;1.90;;;20.10;99.90;;;;;;5054955;28;20043;-69
2023/01/13 13:13:21;;;;;;;7.53;1.63;;;20.10;99.90;;;;;;5067883;28;20032;-70
2023/01/13 13:16:11;;;;;;;8.85;1.65;;;20.00;99.90;;;;;;5066517;28;20524;-69
2023/01/13 13:18:39;;;;;;;10.50;1.95;;;20.00;99.90;;;;;;5068559;28;20449;-69
2023/01/13 13:21:09;;;;;;;7.25;1.50;;;19.90;99.90;;;;;;5076822;28;20028;-69
2023/01/13 13:23:51;;;;;;;4.72;1.42;;;19.90;99.90;;;;;;5065933;28;20024;-70
2023/01/13 13:26:44;;;;;;;5.03;1.80;;;19.80;99.90;;;;;;5056427;28;20501;-69
2023/01/13 13:29:17;;;;;;;7.25;1.83;;;19.70;99.90;;;;;;5074472;28;20024;-69
2023/01/13 13:32:11;;;;;;;14.40;3.78;;;19.70;99.90;;;;;;5083288;28;20568;-69
2023/01/13 13:35:02;;;;;;;13.07;1.85;;;19.60;99.90;;;;;;5074147;28;20073;-69
2023/01/13 13:46:46;;;;;;;7.68;2.30;;;19.10;99.90;;;;;;5059322;28;20039;-70
2023/01/13 13:49:43;;;;;;;7.78;1.77;;;19.10;99.90;;;;;;5069430;28;20039;-69
2023/01/13 13:52:39;;;;;;;11.77;1.77;;;19.00;99.90;;;;;;5059648;28;20078;-69
2023/01/13 13:55:10;;;;;;;8.30;1.67;;;18.90;99.90;;;;;;5069632;28;20487;-68
2023/01/13 13:57:42;;;;;;;9.27;1.88;;;18.80;99.90;;;;;;5057792;28;20107;-71
2023/01/13 14:00:29;;;;;;;13.50;2.20;;;18.70;99.90;;;;;;5068623;28;20031;-71
2023/01/13 14:03:33;;;;;;;9.95;2.20;;;18.70;99.90;;;;;;5073231;28;20508;-69
2023/01/13 14:06:03;;;;;;;11.25;2.28;;;18.70;99.90;;;;;;5044491;28;20120;-69
2023/01/13 14:08:35;;;;;;;7.45;1.95;;;18.70;99.90;;;;;;5065459;28;20036;-70
2023/01/13 14:11:15;;;;;;;9.30;2.22;;;18.60;99.90;;;;;;5067392;28;20029;-68
2023/01/13 14:13:43;;;;;;;10.82;1.95;;;18.60;99.90;;;;;;5063325;28;20146;-68
2023/01/13 14:16:15;;;;;;;7.78;2.03;;;18.50;99.90;;;;;;5066065;28;20031;-68